createdAt,value
2022-11-03T00:02:38.777Z,15.00
2022-11-03T00:05:43.116Z,15.00
2022-11-03T00:08:28.764Z,15.00
2022-11-03T00:11:15.307Z,15.00
2022-11-03T00:14:01.168Z,15.00
2022-11-03T00:16:47.084Z,15.00
2022-11-03T00:19:32.493Z,15.00
2022-11-03T00:22:18.459Z,15.00
2022-11-03T00:25:04.273Z,15.00
2022-11-03T00:27:55.942Z,15.00
2022-11-03T00:30:42.182Z,15.00
2022-11-03T00:33:36.932Z,15.00
2022-11-03T00:36:25.279Z,15.00
2022-11-03T00:39:11.358Z,15.00
2022-11-03T00:41:57.160Z,14.90
2022-11-03T00:44:43.195Z,15.00
2022-11-03T00:47:28.934Z,15.00
2022-11-03T00:50:14.690Z,15.00
2022-11-03T00:53:00.577Z,15.00
2022-11-03T00:55:50.287Z,15.00
2022-11-03T00:58:35.810Z,15.00
2022-11-03T01:01:24.474Z,15.00
2022-11-03T01:04:29.217Z,15.00
2022-11-03T01:07:15.268Z,15.00
2022-11-03T01:10:00.743Z,15.00
2022-11-03T01:12:46.204Z,15.00
2022-11-03T01:15:32.381Z,15.00
2022-11-03T01:18:18.168Z,15.00
2022-11-03T01:21:04.096Z,15.00
2022-11-03T01:23:50.112Z,15.00
2022-11-03T01:26:35.536Z,15.00
2022-11-03T01:29:21.565Z,15.00
2022-11-03T01:32:08.428Z,15.00
2022-11-03T01:34:54.297Z,14.90
2022-11-03T01:37:39.666Z,15.00
2022-11-03T01:40:25.149Z,14.90
2022-11-03T01:43:26.220Z,15.00
2022-11-03T01:46:26.098Z,15.00
2022-11-03T01:49:16.829Z,14.90
2022-11-03T01:52:23.316Z,15.00
2022-11-03T01:55:32.736Z,15.00
2022-11-03T01:58:29.193Z,14.90
2022-11-03T02:01:15.449Z,15.00
2022-11-03T02:04:07.807Z,14.90
2022-11-03T02:07:18.943Z,15.00
2022-11-03T02:10:05.639Z,15.00
2022-11-03T02:12:51.652Z,15.00
2022-11-03T02:15:39.101Z,15.00
2022-11-03T02:18:28.686Z,15.00
2022-11-03T02:21:27.542Z,15.00
2022-11-03T02:24:24.818Z,15.00
2022-11-03T02:27:10.502Z,15.00
2022-11-03T02:29:57.577Z,15.00
2022-11-03T02:32:52.205Z,14.90
2022-11-03T02:35:45.220Z,14.90
2022-11-03T02:38:34.334Z,14.90
2022-11-03T02:41:21.719Z,14.90
2022-11-03T02:44:16.486Z,15.00
2022-11-03T02:47:06.190Z,14.90
2022-11-03T02:52:44.096Z,15.00
2022-11-03T02:55:38.324Z,15.00
2022-11-03T02:58:42.506Z,14.90
2022-11-03T03:01:47.485Z,14.90
2022-11-03T03:04:56.264Z,14.90
2022-11-03T03:07:47.321Z,15.00
2022-11-03T03:10:38.503Z,15.00
2022-11-03T03:13:24.790Z,14.90
2022-11-03T03:16:26.548Z,14.90
2022-11-03T03:19:42.708Z,14.90
2022-11-03T03:22:45.707Z,14.90
2022-11-03T03:25:43.289Z,14.90
2022-11-03T03:28:35.083Z,14.90
2022-11-03T03:31:23.224Z,14.90
2022-11-03T03:34:31.577Z,14.90
2022-11-03T03:37:17.900Z,14.90
2022-11-03T03:40:09.143Z,14.90
2022-11-03T03:42:55.827Z,14.90
2022-11-03T03:45:44.209Z,14.90
2022-11-03T03:48:30.289Z,14.90
2022-11-03T03:51:19.737Z,14.90
2022-11-03T03:54:05.408Z,14.90
2022-11-03T03:57:03.911Z,14.90
2022-11-03T03:59:50.136Z,14.90
2022-11-03T04:02:35.747Z,14.90
2022-11-03T04:05:21.382Z,14.90
2022-11-03T04:08:07.472Z,14.80
2022-11-03T04:11:11.590Z,14.90
2022-11-03T04:14:15.732Z,14.90
2022-11-03T04:17:19.919Z,14.90
2022-11-03T04:20:31.161Z,14.90
2022-11-03T04:23:16.544Z,14.90
2022-11-03T04:26:04.244Z,14.90
2022-11-03T04:28:52.241Z,14.90
2022-11-03T04:31:37.839Z,14.90
2022-11-03T04:34:24.666Z,14.90
2022-11-03T04:37:13.343Z,14.90
2022-11-03T04:40:02.611Z,14.90
2022-11-03T04:42:48.419Z,14.80
2022-11-03T04:45:35.264Z,14.90
2022-11-03T04:48:25.474Z,14.80
2022-11-03T04:51:16.396Z,14.80
2022-11-03T04:54:15.007Z,14.80
2022-11-03T04:57:08.685Z,14.80
2022-11-03T04:59:54.135Z,14.80
2022-11-03T05:02:40.101Z,14.80
2022-11-03T05:05:26.841Z,14.80
2022-11-03T05:08:13.304Z,14.80
2022-11-03T05:11:00.531Z,14.80
2022-11-03T05:13:46.850Z,14.80
2022-11-03T05:16:32.683Z,14.80
2022-11-03T05:19:24.854Z,14.80
2022-11-03T05:22:18.468Z,14.90
2022-11-03T05:25:31.757Z,14.80
2022-11-03T05:28:22.525Z,14.80
2022-11-03T05:31:35.285Z,14.70
2022-11-03T05:34:35.926Z,14.70
2022-11-03T05:37:35.472Z,14.70
2022-11-03T05:40:26.901Z,14.70
2022-11-03T05:43:14.924Z,14.80
2022-11-03T05:46:03.242Z,14.80
2022-11-03T05:48:49.554Z,14.80
2022-11-03T05:51:39.609Z,14.80
2022-11-03T05:54:32.312Z,14.80
2022-11-03T05:57:19.075Z,14.80
2022-11-03T06:00:08.342Z,14.80
2022-11-03T06:02:58.513Z,14.80
2022-11-03T06:05:44.552Z,14.80
2022-11-03T06:08:38.864Z,14.80
2022-11-03T06:11:32.160Z,14.80
2022-11-03T06:14:21.298Z,14.80
2022-11-03T06:17:24.377Z,14.80
2022-11-03T06:20:18.370Z,14.80
2022-11-03T06:23:04.590Z,14.80
2022-11-03T06:25:53.736Z,14.80
2022-11-03T06:28:39.804Z,14.80
2022-11-03T06:31:28.419Z,14.80
2022-11-03T06:34:21.932Z,14.80
2022-11-03T06:37:27.604Z,14.80
2022-11-03T06:40:16.241Z,14.80
2022-11-03T06:43:16.853Z,14.80
2022-11-03T06:46:12.920Z,14.80
2022-11-03T06:49:01.141Z,14.90
2022-11-03T06:51:46.603Z,14.90
2022-11-03T06:54:32.264Z,14.90
2022-11-03T06:57:19.434Z,14.90
2022-11-03T07:00:38.739Z,14.90
2022-11-03T07:03:44.641Z,14.90
2022-11-03T07:06:34.206Z,14.90
2022-11-03T07:09:23.790Z,15.00
2022-11-03T07:12:18.071Z,15.00
2022-11-03T07:15:15.653Z,15.00
2022-11-03T07:18:02.441Z,14.90
2022-11-03T07:20:48.444Z,15.00
2022-11-03T07:23:33.742Z,15.00
2022-11-03T07:26:19.557Z,15.00
2022-11-03T07:29:05.412Z,15.00
2022-11-03T07:31:53.687Z,15.10
2022-11-03T07:34:39.635Z,15.20
2022-11-03T07:37:26.223Z,15.10
2022-11-03T07:40:26.590Z,15.20
2022-11-03T07:43:17.909Z,15.20
2022-11-03T07:46:04.763Z,15.20
2022-11-03T07:48:56.754Z,15.20
2022-11-03T07:51:42.746Z,15.10
2022-11-03T07:54:34.424Z,15.20
2022-11-03T07:57:28.010Z,15.20
2022-11-03T08:00:22.569Z,15.30
2022-11-03T08:03:26.642Z,15.20
2022-11-03T08:06:14.590Z,15.20
2022-11-03T08:09:02.870Z,15.20
2022-11-03T08:11:49.489Z,15.20
2022-11-03T08:14:35.343Z,15.20
2022-11-03T08:17:21.105Z,15.20
2022-11-03T08:20:07.562Z,15.20
2022-11-03T08:23:24.178Z,15.20
2022-11-03T08:25:58.885Z,15.20
2022-11-03T08:28:44.441Z,15.20
2022-11-03T08:31:30.087Z,15.20
2022-11-03T08:34:15.699Z,15.20
2022-11-03T08:37:01.510Z,15.20
2022-11-03T08:39:47.066Z,15.20
2022-11-03T08:42:32.762Z,15.30
2022-11-03T08:45:18.224Z,15.20
2022-11-03T08:48:04.122Z,15.20
2022-11-03T08:50:54.278Z,15.30
2022-11-03T08:53:40.462Z,15.30
2022-11-03T08:56:25.968Z,15.40
2022-11-03T08:59:11.710Z,15.40
2022-11-03T09:01:57.792Z,15.40
2022-11-03T09:04:43.606Z,15.50
2022-11-03T09:10:37.020Z,15.60
2022-11-03T09:13:25.276Z,15.60
2022-11-03T09:16:11.044Z,15.50
2022-11-03T09:18:56.571Z,15.50
2022-11-03T09:21:42.003Z,15.50
2022-11-03T09:24:27.611Z,15.50
2022-11-03T09:27:13.113Z,15.50
2022-11-03T09:30:12.945Z,15.50
2022-11-03T09:32:59.656Z,15.50
2022-11-03T09:35:45.543Z,15.50
2022-11-03T09:38:31.051Z,15.60
2022-11-03T09:41:27.565Z,15.60
2022-11-03T09:44:14.197Z,15.60
2022-11-03T09:47:00.820Z,15.60
2022-11-03T09:49:46.766Z,15.60
2022-11-03T09:52:33.408Z,15.60
2022-11-03T09:55:25.587Z,15.60
2022-11-03T09:58:15.280Z,15.60
2022-11-03T10:01:01.550Z,15.70
2022-11-03T10:03:47.641Z,15.70
2022-11-03T10:06:33.206Z,15.70
2022-11-03T10:09:20.726Z,15.70
2022-11-03T10:12:09.356Z,15.70
2022-11-03T10:14:55.532Z,15.70
2022-11-03T10:17:41.865Z,15.70
2022-11-03T10:20:29.309Z,15.80
2022-11-03T10:23:15.171Z,15.70
2022-11-03T10:26:19.876Z,15.70
2022-11-03T10:29:09.690Z,15.70
2022-11-03T10:31:58.874Z,15.70
2022-11-03T10:34:44.718Z,15.70
2022-11-03T10:37:30.229Z,15.70
2022-11-03T10:40:52.017Z,15.80
2022-11-03T10:43:38.924Z,15.80
2022-11-03T10:46:52.266Z,15.80
2022-11-03T10:49:43.241Z,15.80
2022-11-03T10:52:30.364Z,15.80
2022-11-03T10:55:20.526Z,15.80
2022-11-03T10:58:09.774Z,15.80
2022-11-03T11:00:56.006Z,15.80
2022-11-03T11:03:44.818Z,15.80
2022-11-03T11:06:31.512Z,15.80
2022-11-03T11:09:22.953Z,15.90
2022-11-03T11:12:23.321Z,15.90
2022-11-03T11:15:41.039Z,16.00
2022-11-03T11:18:29.691Z,16.10
2022-11-03T11:21:15.647Z,16.10
2022-11-03T11:24:01.644Z,16.20
2022-11-03T11:26:50.760Z,16.20
2022-11-03T11:29:36.263Z,16.20
2022-11-03T11:32:48.755Z,16.30
2022-11-03T11:35:37.525Z,16.40
2022-11-03T11:38:48.416Z,16.50
2022-11-03T11:42:12.292Z,16.50
2022-11-03T11:45:03.539Z,16.60
2022-11-03T11:47:52.320Z,16.70
2022-11-03T11:50:38.040Z,16.90
2022-11-03T11:53:29.135Z,17.10
2022-11-03T11:56:19.168Z,17.20
2022-11-03T11:59:05.856Z,17.20
2022-11-03T12:01:53.846Z,17.40
2022-11-03T12:04:46.407Z,17.40
2022-11-03T12:07:34.644Z,17.50
2022-11-03T12:10:26.356Z,17.50
2022-11-03T12:13:42.845Z,17.70
2022-11-03T12:16:29.492Z,17.70
2022-11-03T12:19:44.899Z,17.50
2022-11-03T12:22:30.423Z,17.30
2022-11-03T12:25:37.045Z,17.10
2022-11-03T12:28:36.248Z,17.00
2022-11-03T12:31:22.074Z,17.00
2022-11-03T12:34:07.468Z,17.00
2022-11-03T12:36:56.189Z,16.90
2022-11-03T12:39:42.624Z,17.00
2022-11-03T12:42:28.737Z,17.10
2022-11-03T12:45:14.758Z,17.10
2022-11-03T12:48:00.785Z,17.10
2022-11-03T12:50:46.271Z,17.10
2022-11-03T12:53:31.949Z,17.10
2022-11-03T12:56:18.753Z,17.10
2022-11-03T12:59:04.567Z,17.30
2022-11-03T13:01:50.289Z,17.30
2022-11-03T13:04:36.819Z,17.30
2022-11-03T13:07:29.011Z,17.30
2022-11-03T13:10:16.727Z,17.20
2022-11-03T13:13:02.566Z,17.20
2022-11-03T13:15:48.530Z,17.30
2022-11-03T13:18:34.365Z,17.30
2022-11-03T13:21:19.983Z,17.30
2022-11-03T13:24:06.191Z,17.30
2022-11-03T13:26:51.808Z,17.30
2022-11-03T13:29:37.516Z,17.20
2022-11-03T13:32:23.324Z,17.20
2022-11-03T13:35:13.779Z,17.20
2022-11-03T13:37:59.504Z,17.20
2022-11-03T13:41:08.019Z,17.20
2022-11-03T13:43:51.980Z,17.20
2022-11-03T13:46:37.683Z,17.20
2022-11-03T13:52:30.672Z,17.30
2022-11-03T14:01:28.078Z,17.60
2022-11-03T14:07:20.951Z,17.70
2022-11-03T14:10:07.424Z,17.60
2022-11-03T14:12:53.196Z,17.40
2022-11-03T14:15:38.993Z,17.30
2022-11-03T14:18:24.518Z,17.30
2022-11-03T14:21:10.088Z,17.30
2022-11-03T14:23:55.670Z,17.20
2022-11-03T14:26:43.092Z,17.20
2022-11-03T14:29:29.065Z,17.30
2022-11-03T14:32:14.755Z,17.30
2022-11-03T14:35:00.448Z,17.20
2022-11-03T14:37:46.216Z,17.10
2022-11-03T14:40:50.291Z,17.10
2022-11-03T14:43:35.836Z,17.10
2022-11-03T14:46:22.521Z,17.00
2022-11-03T14:49:09.124Z,17.00
2022-11-03T14:51:59.768Z,16.90
2022-11-03T14:54:45.678Z,16.90
2022-11-03T14:57:31.681Z,16.80
2022-11-03T15:00:17.590Z,16.80
2022-11-03T15:03:03.488Z,16.80
2022-11-03T15:05:49.640Z,16.80
2022-11-03T15:08:35.480Z,16.70
2022-11-03T15:11:20.947Z,16.70
2022-11-03T15:14:06.680Z,16.70
2022-11-03T15:16:52.079Z,16.60
2022-11-03T15:19:37.865Z,16.60
2022-11-03T15:25:33.747Z,16.60
2022-11-03T15:28:22.792Z,16.50
2022-11-03T15:31:09.007Z,16.50
2022-11-03T15:33:54.624Z,16.50
2022-11-03T15:36:40.084Z,16.40
2022-11-03T15:39:26.009Z,16.40
2022-11-03T15:42:11.832Z,16.40
2022-11-03T15:44:57.440Z,16.40
2022-11-03T15:47:43.220Z,16.40
2022-11-03T15:50:29.204Z,16.40
2022-11-03T15:53:14.663Z,16.30
2022-11-03T15:56:00.603Z,16.30
2022-11-03T15:58:46.320Z,16.30
2022-11-03T16:01:32.136Z,16.30
2022-11-03T16:04:18.277Z,16.30
2022-11-03T16:07:08.469Z,16.30
2022-11-03T16:09:54.863Z,16.20
2022-11-03T16:12:41.003Z,16.20
2022-11-03T16:15:26.795Z,16.20
2022-11-03T16:18:12.611Z,16.20
2022-11-03T16:20:58.083Z,16.10
2022-11-03T16:23:43.843Z,16.20
2022-11-03T16:26:31.435Z,16.10
2022-11-03T16:29:17.543Z,16.10
2022-11-03T16:32:03.260Z,16.10
2022-11-03T16:34:49.623Z,16.10
2022-11-03T16:37:35.192Z,16.10
2022-11-03T16:40:20.930Z,16.10
2022-11-03T16:43:06.352Z,16.00
2022-11-03T16:45:52.028Z,16.00
2022-11-03T16:48:37.459Z,16.00
2022-11-03T16:51:23.284Z,16.00
2022-11-03T16:54:09.531Z,16.00
2022-11-03T16:56:55.304Z,16.00
2022-11-03T16:59:41.313Z,16.00
2022-11-03T17:02:28.137Z,16.00
2022-11-03T17:05:15.583Z,16.00
2022-11-03T17:08:02.003Z,16.00
2022-11-03T17:10:47.782Z,16.00
2022-11-03T17:13:33.331Z,16.00
2022-11-03T17:16:18.883Z,15.90
2022-11-03T17:19:04.630Z,15.90
2022-11-03T17:21:50.518Z,15.90
2022-11-03T17:24:36.120Z,15.90
2022-11-03T17:27:27.416Z,15.90
2022-11-03T17:30:24.303Z,15.80
2022-11-03T17:33:15.476Z,15.80
2022-11-03T17:36:01.781Z,15.80
2022-11-03T17:38:47.404Z,15.80
2022-11-03T17:41:36.742Z,15.80
2022-11-03T17:44:22.206Z,15.70
2022-11-03T17:47:07.963Z,15.70
2022-11-03T17:49:53.427Z,15.70
2022-11-03T17:52:39.156Z,15.70
2022-11-03T17:55:33.015Z,15.70
2022-11-03T17:58:48.567Z,15.70
2022-11-03T18:01:34.361Z,15.70
2022-11-03T18:04:20.047Z,15.70
2022-11-03T18:07:19.352Z,15.70
2022-11-03T18:10:06.595Z,15.60
2022-11-03T18:13:12.701Z,15.60
2022-11-03T18:16:01.445Z,15.60
2022-11-03T18:18:47.972Z,15.50
2022-11-03T18:21:33.659Z,15.50
2022-11-03T18:24:21.655Z,15.50
2022-11-03T18:27:14.061Z,15.50
2022-11-03T18:29:59.804Z,15.50
2022-11-03T18:32:46.322Z,15.50
2022-11-03T18:35:34.248Z,15.50
2022-11-03T18:38:22.397Z,15.50
2022-11-03T18:41:41.054Z,15.40
2022-11-03T18:44:28.760Z,15.40
2022-11-03T18:47:15.079Z,15.40
2022-11-03T18:50:00.686Z,15.40
2022-11-03T18:52:51.284Z,15.40
2022-11-03T18:55:37.051Z,15.40
2022-11-03T18:58:24.664Z,15.30
2022-11-03T19:01:21.755Z,15.30
2022-11-03T19:04:14.960Z,15.30
2022-11-03T19:07:02.906Z,15.20
2022-11-03T19:09:48.960Z,15.20
2022-11-03T19:12:38.852Z,15.10
2022-11-03T19:15:26.101Z,15.20
2022-11-03T19:18:13.048Z,15.20
2022-11-03T19:20:58.687Z,15.20
2022-11-03T19:23:47.908Z,15.20
2022-11-03T19:27:03.131Z,15.20
2022-11-03T19:29:49.063Z,15.10
2022-11-03T19:32:44.768Z,15.10
2022-11-03T19:35:34.054Z,15.20
2022-11-03T19:38:19.683Z,15.10
2022-11-03T19:41:24.823Z,15.10
2022-11-03T19:44:11.716Z,15.10
2022-11-03T19:46:57.715Z,15.20
2022-11-03T19:49:44.499Z,15.10
2022-11-03T19:52:31.707Z,15.10
2022-11-03T19:55:19.425Z,15.10
2022-11-03T19:58:20.982Z,15.10
2022-11-03T20:01:08.818Z,15.00
2022-11-03T20:03:54.411Z,15.10
2022-11-03T20:06:41.129Z,15.10
2022-11-03T20:12:18.357Z,15.20
2022-11-03T20:15:19.985Z,15.10
2022-11-03T20:18:06.501Z,15.10
2022-11-03T20:20:52.341Z,15.10
2022-11-03T20:23:39.358Z,15.00
2022-11-03T20:26:26.867Z,15.00
2022-11-03T20:29:14.477Z,14.90
2022-11-03T20:32:00.081Z,14.90
2022-11-03T20:34:46.667Z,14.90
2022-11-03T20:37:32.535Z,15.00
2022-11-03T20:40:23.790Z,15.00
2022-11-03T20:43:26.891Z,14.90
2022-11-03T20:46:18.577Z,14.90
2022-11-03T20:49:05.034Z,14.90
2022-11-03T20:51:51.295Z,14.90
2022-11-03T20:54:36.622Z,15.00
2022-11-03T20:57:22.228Z,15.00
2022-11-03T21:00:12.911Z,14.90
2022-11-03T21:02:58.705Z,14.90
2022-11-03T21:05:45.165Z,14.90
2022-11-03T21:08:30.763Z,14.90
2022-11-03T21:11:27.289Z,14.80
2022-11-03T21:14:29.927Z,14.80
2022-11-03T21:17:34.185Z,14.80
2022-11-03T21:20:19.940Z,14.90
2022-11-03T21:23:23.955Z,14.90
2022-11-03T21:26:13.106Z,14.90
2022-11-03T21:28:58.721Z,14.90
2022-11-03T21:31:44.332Z,15.00
2022-11-03T21:34:30.041Z,15.00
2022-11-03T21:37:16.168Z,15.10
2022-11-03T21:40:01.609Z,15.00
2022-11-03T21:43:05.844Z,14.90
2022-11-03T21:45:51.611Z,15.00
2022-11-03T21:48:57.111Z,15.00
2022-11-03T21:51:42.616Z,15.00
2022-11-03T21:54:28.388Z,15.00
2022-11-03T21:57:16.740Z,15.10
2022-11-03T22:00:02.657Z,15.10
2022-11-03T22:02:50.663Z,15.10
2022-11-03T22:05:36.499Z,15.00
2022-11-03T22:08:21.933Z,15.00
2022-11-03T22:11:22.853Z,15.00
2022-11-03T22:14:11.810Z,15.00
2022-11-03T22:16:57.710Z,15.00
2022-11-03T22:20:01.637Z,15.00
2022-11-03T22:23:05.811Z,15.00
2022-11-03T22:26:09.936Z,15.00
2022-11-03T22:29:16.926Z,15.00
2022-11-03T22:32:02.404Z,15.00
2022-11-03T22:35:06.671Z,15.00
2022-11-03T22:38:05.574Z,15.00
2022-11-03T22:41:10.063Z,14.90
2022-11-03T22:44:13.848Z,14.90
2022-11-03T22:47:02.737Z,15.00
2022-11-03T22:49:48.924Z,15.00
2022-11-03T22:52:34.532Z,15.00
2022-11-03T22:55:20.393Z,15.00
2022-11-03T22:58:05.895Z,15.10
2022-11-03T23:00:51.755Z,15.10
2022-11-03T23:03:39.852Z,15.10
2022-11-03T23:06:28.178Z,15.10
2022-11-03T23:09:13.679Z,15.10
2022-11-03T23:11:59.426Z,15.10
2022-11-03T23:15:03.616Z,15.10
2022-11-03T23:18:08.341Z,15.10
2022-11-03T23:21:08.944Z,15.10
2022-11-03T23:24:13.887Z,15.10
2022-11-03T23:26:59.596Z,15.10
2022-11-03T23:29:45.262Z,15.10
2022-11-03T23:32:30.846Z,15.10
2022-11-03T23:35:17.084Z,15.10
2022-11-03T23:38:03.060Z,15.10
2022-11-03T23:40:48.478Z,15.10
2022-11-03T23:43:34.575Z,15.10
2022-11-03T23:46:42.257Z,15.10
2022-11-03T23:49:27.844Z,15.10
2022-11-03T23:52:13.329Z,15.20
2022-11-03T23:54:59.058Z,15.20
2022-11-03T23:58:03.292Z,15.20
